createdAt,value
2023-10-19T00:02:25.408Z,9.22
2023-10-19T00:04:52.654Z,9.25
2023-10-19T00:07:19.951Z,9.21
2023-10-19T00:09:47.242Z,9.24
2023-10-19T00:12:14.531Z,9.22
2023-10-19T00:14:43.082Z,9.26
2023-10-19T00:17:10.382Z,9.18
2023-10-19T00:19:37.699Z,9.18
2023-10-19T00:22:04.957Z,9.21
2023-10-19T00:24:32.503Z,9.24
2023-10-19T00:26:59.883Z,9.27
2023-10-19T00:29:27.070Z,9.29
2023-10-19T00:31:55.713Z,9.30
2023-10-19T00:34:23.113Z,9.36
2023-10-19T00:36:51.022Z,9.37
2023-10-19T00:39:18.322Z,9.35
2023-10-19T00:41:46.302Z,9.35
2023-10-19T00:44:13.520Z,9.36
2023-10-19T00:46:40.849Z,9.36
2023-10-19T00:49:11.021Z,9.42
2023-10-19T00:51:45.108Z,9.36
2023-10-19T00:54:16.640Z,9.39
2023-10-19T00:56:45.668Z,9.44
2023-10-19T00:59:13.476Z,9.47
2023-10-19T01:01:42.042Z,9.47
2023-10-19T01:04:10.768Z,9.46
2023-10-19T01:06:37.978Z,9.46
2023-10-19T01:09:05.343Z,9.43
2023-10-19T01:11:32.882Z,9.46
2023-10-19T01:14:00.745Z,9.43
2023-10-19T01:16:28.064Z,9.41
2023-10-19T01:18:55.481Z,9.40
2023-10-19T01:21:25.069Z,9.39
2023-10-19T01:23:53.851Z,9.36
2023-10-19T01:26:21.086Z,9.34
2023-10-19T01:28:48.637Z,9.35
2023-10-19T01:31:17.301Z,9.36
2023-10-19T01:33:45.225Z,9.40
2023-10-19T01:36:12.712Z,9.41
2023-10-19T01:38:40.484Z,9.39
2023-10-19T01:41:10.323Z,9.42
2023-10-19T01:43:37.582Z,9.39
2023-10-19T01:46:04.885Z,9.39
2023-10-19T01:48:32.479Z,9.42
2023-10-19T01:51:00.266Z,9.44
2023-10-19T01:53:27.490Z,9.46
2023-10-19T01:55:54.680Z,9.47
2023-10-19T01:58:23.286Z,9.41
2023-10-19T02:00:50.552Z,9.42
2023-10-19T02:03:17.947Z,9.40
2023-10-19T02:05:45.181Z,9.43
2023-10-19T02:08:12.413Z,9.44
2023-10-19T02:10:39.666Z,9.47
2023-10-19T02:13:09.202Z,9.50
2023-10-19T02:15:37.889Z,9.48
2023-10-19T02:18:05.576Z,9.48
2023-10-19T02:20:40.626Z,9.47
2023-10-19T02:23:09.043Z,9.52
2023-10-19T02:25:36.324Z,9.48
2023-10-19T02:28:04.805Z,9.54
2023-10-19T02:30:32.090Z,9.54
2023-10-19T02:33:00.763Z,9.57
2023-10-19T02:35:28.214Z,9.57
2023-10-19T02:37:55.471Z,9.54
2023-10-19T02:40:22.986Z,9.55
2023-10-19T02:42:50.444Z,9.59
2023-10-19T02:45:17.750Z,9.58
2023-10-19T02:47:45.781Z,9.61
2023-10-19T02:50:14.393Z,9.63
2023-10-19T02:52:41.673Z,9.66
2023-10-19T02:55:09.406Z,9.71
2023-10-19T02:57:37.051Z,9.73
2023-10-19T03:00:07.235Z,9.76
2023-10-19T03:02:34.547Z,9.80
2023-10-19T03:05:01.910Z,9.80
2023-10-19T03:07:30.660Z,9.86
2023-10-19T03:09:57.873Z,9.88
2023-10-19T03:12:25.659Z,9.92
2023-10-19T03:14:53.112Z,9.96
2023-10-19T03:17:20.433Z,9.98
2023-10-19T03:19:47.816Z,10.00
2023-10-19T03:22:15.084Z,10.03
2023-10-19T03:24:43.657Z,10.02
2023-10-19T03:27:12.962Z,10.02
2023-10-19T03:29:40.512Z,9.92
2023-10-19T03:32:07.777Z,9.86
2023-10-19T03:34:37.407Z,9.84
2023-10-19T03:37:06.700Z,9.73
2023-10-19T03:39:35.049Z,9.71
2023-10-19T03:42:03.638Z,9.65
2023-10-19T03:44:31.745Z,9.67
2023-10-19T03:46:59.566Z,9.70
2023-10-19T03:49:26.855Z,9.69
2023-10-19T03:51:54.081Z,9.72
2023-10-19T03:54:21.289Z,9.79
2023-10-19T03:56:49.673Z,9.78
2023-10-19T03:59:18.307Z,9.81
2023-10-19T04:01:45.656Z,9.85
2023-10-19T04:04:12.970Z,9.84
2023-10-19T04:06:40.446Z,9.92
2023-10-19T04:09:07.708Z,9.90
2023-10-19T04:11:35.473Z,9.94
2023-10-19T04:14:02.715Z,9.91
2023-10-19T04:16:31.560Z,9.92
2023-10-19T04:18:58.839Z,9.92
2023-10-19T04:21:26.064Z,9.91
2023-10-19T04:23:53.268Z,9.90
2023-10-19T04:26:20.497Z,9.94
2023-10-19T04:28:47.758Z,9.99
2023-10-19T04:31:15.040Z,9.98
2023-10-19T04:33:43.972Z,9.97
2023-10-19T04:36:11.230Z,9.99
2023-10-19T04:38:38.489Z,10.02
2023-10-19T04:41:07.083Z,9.98
2023-10-19T04:43:34.430Z,9.96
2023-10-19T04:46:01.713Z,9.94
2023-10-19T04:48:28.962Z,9.96
2023-10-19T04:50:57.555Z,9.97
2023-10-19T04:53:24.793Z,10.00
2023-10-19T04:55:52.067Z,10.06
2023-10-19T04:58:19.320Z,9.99
2023-10-19T05:00:46.645Z,9.99
2023-10-19T05:03:13.857Z,9.94
2023-10-19T05:05:41.790Z,9.96
2023-10-19T05:08:10.365Z,9.96
2023-10-19T05:10:37.622Z,10.00
2023-10-19T05:13:04.895Z,10.03
2023-10-19T05:15:32.136Z,10.00
2023-10-19T05:17:59.377Z,9.99
2023-10-19T05:20:26.630Z,9.98
2023-10-19T05:22:53.839Z,9.94
2023-10-19T05:25:22.526Z,9.95
2023-10-19T05:27:49.784Z,10.00
2023-10-19T05:30:17.302Z,10.01
2023-10-19T05:32:44.751Z,9.98
2023-10-19T05:35:12.040Z,9.98
2023-10-19T05:37:39.329Z,10.00
2023-10-19T05:40:07.695Z,9.97
2023-10-19T05:42:36.276Z,9.96
2023-10-19T05:45:04.094Z,9.88
2023-10-19T05:47:31.302Z,9.89
2023-10-19T05:49:58.560Z,9.88
2023-10-19T05:52:25.823Z,9.89
2023-10-19T05:54:53.045Z,9.97
2023-10-19T05:57:20.237Z,10.04
2023-10-19T05:59:49.036Z,9.98
2023-10-19T06:02:16.390Z,10.02
2023-10-19T06:04:43.680Z,10.04
2023-10-19T06:07:11.072Z,10.12
2023-10-19T06:09:38.368Z,10.18
2023-10-19T06:12:05.947Z,10.13
2023-10-19T06:14:33.315Z,10.08
2023-10-19T06:17:02.204Z,10.10
2023-10-19T06:19:29.664Z,10.09
2023-10-19T06:21:56.950Z,10.10
2023-10-19T06:24:24.207Z,10.10
2023-10-19T06:26:51.458Z,10.07
2023-10-19T06:29:18.695Z,10.08
2023-10-19T06:31:45.998Z,10.17
2023-10-19T06:34:14.657Z,10.23
2023-10-19T06:36:41.870Z,10.26
2023-10-19T06:39:09.081Z,10.27
2023-10-19T06:41:36.307Z,10.27
2023-10-19T06:44:03.804Z,10.33
2023-10-19T06:46:31.202Z,10.35
2023-10-19T06:48:58.468Z,10.34
2023-10-19T06:51:27.288Z,10.38
2023-10-19T06:53:54.543Z,10.42
2023-10-19T06:56:21.751Z,10.49
2023-10-19T06:58:49.023Z,10.51
2023-10-19T07:01:16.287Z,10.62
2023-10-19T07:03:43.710Z,10.65
2023-10-19T07:06:13.792Z,10.66
2023-10-19T07:08:43.613Z,10.70
2023-10-19T07:11:11.163Z,10.73
2023-10-19T07:13:38.492Z,10.70
2023-10-19T07:16:06.499Z,10.72
2023-10-19T07:18:33.764Z,10.80
2023-10-19T07:21:00.986Z,10.91
2023-10-19T07:23:28.226Z,11.08
2023-10-19T07:25:56.825Z,11.27
2023-10-19T07:28:24.254Z,11.45
2023-10-19T07:30:51.544Z,11.53
2023-10-19T07:33:19.240Z,11.51
2023-10-19T07:35:47.944Z,11.49
2023-10-19T07:38:15.554Z,11.58
2023-10-19T07:40:43.667Z,11.69
2023-10-19T07:43:12.267Z,11.77
2023-10-19T07:45:39.850Z,11.68
2023-10-19T07:48:08.111Z,11.74
2023-10-19T07:50:36.423Z,11.81
2023-10-19T07:53:04.359Z,11.84
2023-10-19T07:55:32.136Z,11.98
2023-10-19T07:58:00.269Z,12.04
2023-10-19T08:00:29.050Z,12.09
2023-10-19T08:02:56.809Z,12.12
2023-10-19T08:05:24.527Z,12.12
2023-10-19T08:07:51.902Z,12.19
2023-10-19T08:10:21.019Z,12.26
2023-10-19T08:12:50.948Z,12.37
2023-10-19T08:15:18.855Z,12.50
2023-10-19T08:17:48.870Z,12.57
2023-10-19T08:20:16.472Z,12.51
2023-10-19T08:22:44.093Z,12.57
2023-10-19T08:25:11.577Z,12.78
2023-10-19T08:27:39.523Z,12.87
2023-10-19T08:30:07.853Z,13.08
2023-10-19T08:32:35.387Z,13.19
2023-10-19T08:35:04.433Z,13.23
2023-10-19T08:37:31.734Z,13.34
2023-10-19T08:39:58.961Z,13.44
2023-10-19T08:42:26.217Z,13.72
2023-10-19T08:44:53.436Z,14.23
2023-10-19T08:47:21.272Z,14.46
2023-10-19T08:49:48.580Z,14.82
2023-10-19T08:52:21.393Z,15.11
2023-10-19T08:54:48.771Z,15.01
2023-10-19T08:57:16.386Z,15.07
2023-10-19T08:59:43.608Z,15.26
2023-10-19T09:02:10.871Z,15.27
2023-10-19T09:04:43.104Z,15.28
2023-10-19T09:07:10.475Z,15.34
2023-10-19T09:09:39.113Z,15.52
2023-10-19T09:12:07.818Z,15.34
2023-10-19T09:14:36.154Z,15.37
2023-10-19T09:17:04.870Z,15.45
2023-10-19T09:19:38.004Z,15.50
2023-10-19T09:22:05.910Z,15.63
2023-10-19T09:24:33.216Z,15.40
2023-10-19T09:27:03.457Z,15.52
2023-10-19T09:29:30.844Z,15.60
2023-10-19T09:31:59.582Z,15.75
2023-10-19T09:34:28.053Z,15.74
2023-10-19T09:36:55.464Z,15.99
2023-10-19T09:39:22.705Z,16.20
2023-10-19T09:41:50.039Z,16.06
2023-10-19T09:44:24.955Z,15.99
2023-10-19T09:46:58.453Z,16.22
2023-10-19T09:49:27.279Z,16.29
2023-10-19T09:52:06.702Z,16.42
2023-10-19T09:54:49.133Z,16.60
2023-10-19T09:57:20.661Z,16.43
2023-10-19T09:59:57.393Z,16.31
2023-10-19T10:02:27.163Z,16.31
2023-10-19T10:04:54.791Z,16.30
2023-10-19T10:07:36.095Z,16.24
2023-10-19T10:10:09.706Z,16.48
2023-10-19T10:12:37.000Z,16.80
2023-10-19T10:15:06.944Z,16.98
2023-10-19T10:17:35.562Z,17.20
2023-10-19T10:20:31.257Z,17.41
2023-10-19T10:23:18.299Z,17.60
2023-10-19T10:25:46.982Z,17.68
2023-10-19T10:28:15.358Z,17.65
2023-10-19T10:31:15.425Z,17.63
2023-10-19T10:33:44.433Z,17.64
2023-10-19T10:36:12.287Z,17.76
2023-10-19T10:38:39.817Z,17.72
2023-10-19T10:41:07.648Z,17.74
2023-10-19T10:43:35.170Z,17.85
2023-10-19T10:46:06.255Z,18.03
2023-10-19T10:48:35.377Z,18.09
2023-10-19T10:51:02.828Z,18.38
2023-10-19T10:53:30.076Z,18.57
2023-10-19T10:56:01.323Z,18.76
2023-10-19T10:58:28.549Z,18.78
2023-10-19T11:00:55.879Z,18.87
2023-10-19T11:03:25.232Z,18.66
2023-10-19T11:05:54.065Z,18.79
2023-10-19T11:08:25.839Z,18.90
2023-10-19T11:10:53.180Z,18.98
2023-10-19T11:13:25.093Z,18.98
2023-10-19T11:15:54.714Z,18.75
2023-10-19T11:18:30.959Z,18.83
2023-10-19T11:21:01.353Z,19.10
2023-10-19T11:23:39.008Z,18.97
2023-10-19T11:26:06.687Z,18.56
2023-10-19T11:28:34.777Z,18.58
2023-10-19T11:31:12.679Z,18.67
2023-10-19T11:33:41.420Z,18.71
2023-10-19T11:36:10.348Z,18.60
2023-10-19T11:38:37.568Z,18.65
2023-10-19T11:41:04.888Z,18.88
2023-10-19T11:43:32.150Z,18.45
2023-10-19T11:45:59.442Z,18.44
2023-10-19T11:48:26.686Z,18.38
2023-10-19T11:50:53.881Z,17.97
2023-10-19T11:53:22.421Z,18.00
2023-10-19T11:55:49.794Z,18.17
2023-10-19T11:58:17.028Z,18.30
2023-10-19T12:00:44.364Z,18.32
2023-10-19T12:03:11.722Z,18.15
2023-10-19T12:05:39.165Z,18.19
2023-10-19T12:08:06.973Z,18.17
2023-10-19T12:10:35.925Z,18.06
2023-10-19T12:13:04.465Z,17.96
2023-10-19T12:15:31.879Z,17.96
2023-10-19T12:17:59.564Z,17.88
2023-10-19T12:20:27.009Z,17.76
2023-10-19T12:22:54.266Z,17.75
2023-10-19T12:25:21.617Z,17.54
2023-10-19T12:27:53.227Z,17.64
2023-10-19T12:30:20.438Z,17.68
2023-10-19T12:32:47.877Z,17.58
2023-10-19T12:35:17.278Z,17.73
2023-10-19T12:37:46.086Z,17.57
2023-10-19T12:40:13.466Z,17.66
2023-10-19T12:42:40.660Z,17.73
2023-10-19T12:45:10.384Z,17.81
2023-10-19T12:47:37.657Z,17.80
2023-10-19T12:50:05.612Z,17.71
2023-10-19T12:52:32.908Z,17.75
2023-10-19T12:55:00.261Z,17.69
2023-10-19T12:57:27.540Z,17.58
2023-10-19T12:59:55.436Z,17.42
2023-10-19T13:02:24.317Z,17.35
2023-10-19T13:04:51.674Z,17.29
2023-10-19T13:07:19.028Z,17.14
2023-10-19T13:09:46.546Z,17.15
2023-10-19T13:12:14.751Z,17.08
2023-10-19T13:14:42.082Z,17.12
2023-10-19T13:17:09.368Z,17.12
2023-10-19T13:19:38.106Z,17.11
2023-10-19T13:22:05.331Z,17.10
2023-10-19T13:24:32.760Z,17.10
2023-10-19T13:27:00.174Z,17.06
2023-10-19T13:29:27.404Z,17.01
2023-10-19T13:31:54.709Z,17.03
2023-10-19T13:34:21.996Z,16.93
2023-10-19T13:36:50.554Z,16.73
2023-10-19T13:39:17.803Z,16.59
2023-10-19T13:41:45.115Z,16.67
2023-10-19T13:44:12.396Z,16.61
2023-10-19T13:46:39.768Z,16.65
2023-10-19T13:49:07.116Z,16.67
2023-10-19T13:51:34.399Z,16.49
2023-10-19T13:54:03.103Z,16.40
2023-10-19T13:56:30.332Z,16.51
2023-10-19T13:58:57.921Z,16.37
2023-10-19T14:01:25.309Z,16.26
2023-10-19T14:03:53.568Z,16.36
2023-10-19T14:06:20.972Z,16.16
2023-10-19T14:08:48.220Z,16.21
2023-10-19T14:11:17.065Z,16.23
2023-10-19T14:13:44.761Z,16.18
2023-10-19T14:16:13.243Z,16.21
2023-10-19T14:18:40.862Z,16.13
2023-10-19T14:21:12.321Z,16.16
2023-10-19T14:23:40.324Z,15.95
2023-10-19T14:26:07.756Z,16.07
2023-10-19T14:28:37.094Z,16.05
2023-10-19T14:31:05.642Z,16.02
2023-10-19T14:33:33.490Z,16.08
2023-10-19T14:36:01.461Z,16.09
2023-10-19T14:38:29.694Z,16.11
2023-10-19T14:40:57.912Z,16.03
2023-10-19T14:43:26.202Z,15.92
2023-10-19T14:45:55.360Z,15.81
2023-10-19T14:48:23.872Z,15.69
2023-10-19T14:50:51.545Z,15.64
2023-10-19T14:53:19.623Z,15.60
2023-10-19T14:55:47.281Z,15.60
2023-10-19T14:58:15.089Z,15.67
2023-10-19T15:00:43.057Z,15.56
2023-10-19T15:03:14.018Z,15.53
2023-10-19T15:05:42.215Z,15.50
2023-10-19T15:08:10.568Z,15.46
2023-10-19T15:10:43.116Z,15.47
2023-10-19T15:13:10.498Z,15.44
2023-10-19T15:15:38.353Z,15.37
2023-10-19T15:18:06.574Z,15.34
2023-10-19T15:20:35.623Z,15.34
2023-10-19T15:23:03.793Z,15.35
2023-10-19T15:25:31.821Z,15.32
2023-10-19T15:27:59.634Z,15.26
2023-10-19T15:30:27.396Z,15.20
2023-10-19T15:32:55.718Z,15.10
2023-10-19T15:35:23.650Z,15.07
2023-10-19T15:37:54.567Z,14.98
2023-10-19T15:40:23.021Z,15.02
2023-10-19T15:42:50.788Z,14.86
2023-10-19T15:45:18.677Z,14.91
2023-10-19T15:47:47.241Z,14.91
2023-10-19T15:50:16.340Z,14.91
2023-10-19T15:52:44.577Z,14.87
2023-10-19T15:55:15.383Z,14.77
2023-10-19T15:57:43.569Z,14.62
2023-10-19T16:00:13.206Z,14.57
2023-10-19T16:02:42.226Z,14.51
2023-10-19T16:05:11.131Z,14.50
2023-10-19T16:07:38.864Z,14.49
2023-10-19T16:10:08.633Z,14.51
2023-10-19T16:12:40.642Z,14.31
2023-10-19T16:15:09.422Z,14.22
2023-10-19T16:17:37.825Z,14.10
2023-10-19T16:20:08.586Z,14.11
2023-10-19T16:22:36.812Z,14.07
2023-10-19T16:25:05.592Z,14.12
2023-10-19T16:27:33.112Z,14.16
2023-10-19T16:30:02.821Z,14.11
2023-10-19T16:32:31.043Z,14.12
2023-10-19T16:34:59.161Z,14.07
2023-10-19T16:37:27.079Z,14.02
2023-10-19T16:39:55.491Z,14.01
2023-10-19T16:42:23.530Z,14.03
2023-10-19T16:44:51.072Z,14.02
2023-10-19T16:47:20.255Z,14.02
2023-10-19T16:49:48.510Z,13.99
2023-10-19T16:52:16.740Z,14.04
2023-10-19T16:54:44.665Z,14.03
2023-10-19T16:57:12.266Z,14.02
2023-10-19T16:59:40.416Z,14.04
2023-10-19T17:02:08.631Z,13.99
2023-10-19T17:04:38.254Z,14.02
2023-10-19T17:07:06.281Z,14.04
2023-10-19T17:09:34.060Z,14.02
2023-10-19T17:12:01.853Z,13.99
2023-10-19T17:14:30.057Z,14.03
2023-10-19T17:16:58.207Z,14.03
2023-10-19T17:19:25.788Z,14.05
2023-10-19T17:21:54.725Z,14.04
2023-10-19T17:24:22.467Z,14.08
2023-10-19T17:26:50.496Z,14.09
2023-10-19T17:29:18.263Z,14.12
2023-10-19T17:31:47.874Z,14.00
2023-10-19T17:34:15.919Z,14.00
2023-10-19T17:36:43.411Z,14.00
2023-10-19T17:39:13.185Z,14.00
2023-10-19T17:41:41.222Z,14.00
2023-10-19T17:44:09.004Z,14.00
2023-10-19T17:46:36.734Z,13.95
2023-10-19T17:49:04.883Z,13.95
2023-10-19T17:51:32.877Z,13.95
2023-10-19T17:54:00.442Z,13.93
2023-10-19T17:56:29.730Z,13.97
2023-10-19T17:58:58.266Z,13.81
2023-10-19T18:01:27.129Z,13.85
2023-10-19T18:03:55.331Z,13.85
2023-10-19T18:06:23.731Z,13.79
2023-10-19T18:08:51.569Z,13.78
2023-10-19T18:11:19.729Z,13.81
2023-10-19T18:13:49.155Z,13.83
2023-10-19T18:16:16.928Z,13.82
2023-10-19T18:18:44.779Z,13.81
2023-10-19T18:21:14.058Z,13.87
2023-10-19T18:23:42.798Z,13.86
2023-10-19T18:26:10.813Z,13.83
2023-10-19T18:28:39.172Z,13.82
2023-10-19T18:31:08.287Z,13.82
2023-10-19T18:33:36.296Z,13.81
2023-10-19T18:36:05.777Z,13.74
2023-10-19T18:38:34.353Z,13.78
2023-10-19T18:41:03.368Z,13.75
2023-10-19T18:43:31.241Z,13.71
2023-10-19T18:46:00.287Z,13.69
2023-10-19T18:48:29.436Z,13.69
2023-10-19T18:50:59.223Z,13.68
2023-10-19T18:53:27.366Z,13.69
2023-10-19T18:55:55.619Z,13.67
2023-10-19T18:58:23.915Z,13.68
2023-10-19T19:00:52.843Z,13.64
2023-10-19T19:03:20.575Z,13.65
2023-10-19T19:05:50.039Z,13.65
2023-10-19T19:08:18.208Z,13.65
2023-10-19T19:10:45.997Z,13.65
2023-10-19T19:13:13.354Z,13.64
2023-10-19T19:15:41.140Z,13.63
2023-10-19T19:18:08.836Z,13.62
2023-10-19T19:20:36.909Z,13.64
2023-10-19T19:23:06.171Z,13.58
2023-10-19T19:25:34.108Z,13.59
2023-10-19T19:28:01.640Z,13.58
2023-10-19T19:30:29.702Z,13.64
2023-10-19T19:32:57.627Z,13.65
2023-10-19T19:35:25.068Z,13.68
2023-10-19T19:37:53.070Z,13.69
2023-10-19T19:40:25.468Z,13.71
2023-10-19T19:42:54.001Z,13.73
2023-10-19T19:45:23.645Z,13.76
2023-10-19T19:47:54.080Z,13.77
2023-10-19T19:50:22.162Z,13.78
2023-10-19T19:52:50.320Z,13.79
2023-10-19T19:55:18.412Z,13.82
2023-10-19T19:57:48.580Z,13.77
2023-10-19T20:00:17.500Z,13.77
2023-10-19T20:02:47.199Z,13.72
2023-10-19T20:05:16.567Z,13.69
2023-10-19T20:07:44.902Z,13.70
2023-10-19T20:10:13.442Z,13.63
2023-10-19T20:12:43.516Z,13.56
2023-10-19T20:15:13.826Z,13.48
2023-10-19T20:17:42.493Z,13.44
2023-10-19T20:20:11.200Z,13.40
2023-10-19T20:22:39.226Z,13.40
2023-10-19T20:25:07.875Z,13.36
2023-10-19T20:30:24.893Z,13.34
2023-10-19T20:32:52.841Z,13.34
2023-10-19T20:35:21.080Z,13.34
2023-10-19T20:37:49.331Z,13.31
2023-10-19T20:40:17.521Z,13.27
2023-10-19T20:42:45.542Z,13.24
2023-10-19T20:45:13.575Z,13.21
2023-10-19T20:47:43.092Z,13.18
2023-10-19T20:50:11.884Z,13.19
2023-10-19T20:52:40.795Z,13.16
2023-10-19T20:55:10.015Z,13.11
2023-10-19T20:57:38.395Z,13.11
2023-10-19T21:00:07.460Z,13.16
2023-10-19T21:02:36.259Z,13.11
2023-10-19T21:05:07.181Z,13.16
2023-10-19T21:07:34.853Z,13.18
2023-10-19T21:10:02.681Z,13.21
2023-10-19T21:12:30.559Z,13.24
2023-10-19T21:14:58.528Z,13.13
2023-10-19T21:17:26.167Z,13.22
2023-10-19T21:19:54.362Z,13.26
2023-10-19T21:22:23.969Z,13.23
2023-10-19T21:24:53.205Z,13.30
2023-10-19T21:27:21.266Z,13.29
2023-10-19T21:29:49.094Z,13.34
2023-10-19T21:32:16.441Z,13.35
2023-10-19T21:34:44.381Z,13.31
2023-10-19T21:37:12.113Z,13.31
2023-10-19T21:39:41.210Z,13.35
2023-10-19T21:42:08.689Z,13.38
2023-10-19T21:44:36.221Z,13.37
2023-10-19T21:47:04.266Z,13.41
2023-10-19T21:49:32.184Z,13.45
2023-10-19T21:52:00.181Z,13.45
2023-10-19T21:54:28.282Z,13.50
2023-10-19T21:56:57.133Z,13.53
2023-10-19T21:59:25.125Z,13.50
2023-10-19T22:01:52.722Z,13.47
2023-10-19T22:04:20.580Z,13.50
2023-10-19T22:06:48.143Z,13.52
2023-10-19T22:09:15.794Z,13.52
2023-10-19T22:11:43.698Z,13.56
2023-10-19T22:14:13.228Z,13.54
2023-10-19T22:16:40.718Z,13.55
2023-10-19T22:19:07.974Z,13.62
2023-10-19T22:21:35.937Z,13.66
2023-10-19T22:24:03.860Z,13.68
2023-10-19T22:26:32.031Z,13.70
2023-10-19T22:29:00.439Z,13.62
2023-10-19T22:31:30.017Z,13.63
2023-10-19T22:33:57.960Z,13.68
2023-10-19T22:36:25.513Z,13.64
2023-10-19T22:38:53.638Z,13.64
2023-10-19T22:41:21.500Z,13.62
2023-10-19T22:43:49.346Z,13.56
2023-10-19T22:46:16.955Z,13.52
2023-10-19T22:48:45.932Z,13.52
2023-10-19T22:51:13.648Z,13.42
2023-10-19T22:53:41.686Z,13.36
2023-10-19T22:56:09.674Z,13.36
2023-10-19T22:58:37.697Z,13.38
2023-10-19T23:01:05.804Z,13.34
2023-10-19T23:03:33.289Z,13.30
2023-10-19T23:06:02.803Z,13.30
2023-10-19T23:08:30.877Z,13.30
2023-10-19T23:10:59.103Z,13.24
2023-10-19T23:13:26.878Z,13.26
2023-10-19T23:15:54.396Z,13.31
2023-10-19T23:18:22.017Z,13.34
2023-10-19T23:20:49.744Z,13.31
2023-10-19T23:23:19.654Z,13.33
2023-10-19T23:25:47.592Z,13.33
2023-10-19T23:28:15.176Z,13.32
2023-10-19T23:30:43.220Z,13.29
2023-10-19T23:33:11.254Z,13.29
2023-10-19T23:35:39.226Z,13.21
2023-10-19T23:38:07.250Z,13.25
2023-10-19T23:40:36.728Z,13.29
2023-10-19T23:43:05.785Z,13.28
2023-10-19T23:45:33.777Z,13.27
2023-10-19T23:48:01.865Z,13.23
2023-10-19T23:50:30.273Z,13.24
2023-10-19T23:52:58.451Z,13.22
2023-10-19T23:55:26.528Z,13.27
2023-10-19T23:57:55.835Z,13.29
